sensor_id;sensor_type;location;lat;lon;timestamp;P1;durP1;ratioP1;P2;durP2;ratioP2
3417;SDS011;68007;51.312;12.372;2023-04-25T00:01:06;8.07;;;3.90;;
3417;SDS011;68007;51.312;12.372;2023-04-25T00:03:36;9.00;;;4.17;;
3417;SDS011;68007;51.312;12.372;2023-04-25T00:06:04;6.57;;;3.83;;
3417;SDS011;68007;51.312;12.372;2023-04-25T00:08:32;9.10;;;4.10;;
3417;SDS011;68007;51.312;12.372;2023-04-25T00:11:00;6.97;;;4.50;;
3417;SDS011;68007;51.312;12.372;2023-04-25T00:13:27;8.50;;;4.60;;
3417;SDS011;68007;51.312;12.372;2023-04-25T00:15:55;5.23;;;3.67;;
3417;SDS011;68007;51.312;12.372;2023-04-25T00:18:24;5.23;;;3.57;;
3417;SDS011;68007;51.312;12.372;2023-04-25T00:20:55;7.10;;;4.17;;
3417;SDS011;68007;51.312;12.372;2023-04-25T00:23:23;8.70;;;4.43;;
3417;SDS011;68007;51.312;12.372;2023-04-25T00:25:50;7.97;;;4.50;;
3417;SDS011;68007;51.312;12.372;2023-04-25T00:28:18;7.90;;;4.17;;
3417;SDS011;68007;51.312;12.372;2023-04-25T00:30:46;7.40;;;4.10;;
3417;SDS011;68007;51.312;12.372;2023-04-25T00:33:13;6.93;;;4.80;;
3417;SDS011;68007;51.312;12.372;2023-04-25T00:35:41;5.73;;;4.03;;
3417;SDS011;68007;51.312;12.372;2023-04-25T00:38:10;6.70;;;4.57;;
3417;SDS011;68007;51.312;12.372;2023-04-25T00:40:38;8.67;;;5.37;;
3417;SDS011;68007;51.312;12.372;2023-04-25T00:43:05;7.40;;;4.67;;
3417;SDS011;68007;51.312;12.372;2023-04-25T00:45:33;8.53;;;4.53;;
3417;SDS011;68007;51.312;12.372;2023-04-25T00:48:04;8.63;;;4.77;;
3417;SDS011;68007;51.312;12.372;2023-04-25T00:50:32;7.60;;;4.53;;
3417;SDS011;68007;51.312;12.372;2023-04-25T00:53:00;8.03;;;4.30;;
3417;SDS011;68007;51.312;12.372;2023-04-25T00:55:30;8.33;;;4.30;;
3417;SDS011;68007;51.312;12.372;2023-04-25T00:57:58;7.10;;;4.93;;
3417;SDS011;68007;51.312;12.372;2023-04-25T01:00:26;8.00;;;5.30;;
3417;SDS011;68007;51.312;12.372;2023-04-25T01:02:53;7.67;;;4.80;;
3417;SDS011;68007;51.312;12.372;2023-04-25T01:05:21;6.90;;;4.87;;
3417;SDS011;68007;51.312;12.372;2023-04-25T01:07:48;5.83;;;4.23;;
3417;SDS011;68007;51.312;12.372;2023-04-25T01:10:16;6.83;;;4.30;;
3417;SDS011;68007;51.312;12.372;2023-04-25T01:12:45;5.90;;;4.40;;
3417;SDS011;68007;51.312;12.372;2023-04-25T01:15:13;8.23;;;5.20;;
3417;SDS011;68007;51.312;12.372;2023-04-25T01:17:40;10.50;;;5.60;;
3417;SDS011;68007;51.312;12.372;2023-04-25T01:20:10;12.80;;;5.30;;
3417;SDS011;68007;51.312;12.372;2023-04-25T01:22:40;7.80;;;4.67;;
3417;SDS011;68007;51.312;12.372;2023-04-25T01:25:09;7.43;;;5.00;;
3417;SDS011;68007;51.312;12.372;2023-04-25T01:27:37;9.77;;;5.40;;
3417;SDS011;68007;51.312;12.372;2023-04-25T01:30:05;9.80;;;5.60;;
3417;SDS011;68007;51.312;12.372;2023-04-25T01:32:34;7.60;;;4.70;;
3417;SDS011;68007;51.312;12.372;2023-04-25T01:35:05;10.67;;;5.10;;
3417;SDS011;68007;51.312;12.372;2023-04-25T01:37:35;9.43;;;5.30;;
3417;SDS011;68007;51.312;12.372;2023-04-25T01:40:05;9.53;;;5.80;;
3417;SDS011;68007;51.312;12.372;2023-04-25T01:42:33;9.40;;;5.33;;
3417;SDS011;68007;51.312;12.372;2023-04-25T01:45:02;8.60;;;5.67;;
3417;SDS011;68007;51.312;12.372;2023-04-25T01:47:30;6.93;;;5.00;;
3417;SDS011;68007;51.312;12.372;2023-04-25T01:49:57;9.80;;;5.23;;
3417;SDS011;68007;51.312;12.372;2023-04-25T01:52:25;7.57;;;4.90;;
3417;SDS011;68007;51.312;12.372;2023-04-25T01:54:53;8.77;;;5.70;;
3417;SDS011;68007;51.312;12.372;2023-04-25T01:57:22;11.10;;;5.70;;
3417;SDS011;68007;51.312;12.372;2023-04-25T01:59:50;11.57;;;5.90;;
3417;SDS011;68007;51.312;12.372;2023-04-25T02:02:19;7.70;;;4.80;;
3417;SDS011;68007;51.312;12.372;2023-04-25T02:04:47;10.10;;;6.00;;
3417;SDS011;68007;51.312;12.372;2023-04-25T02:07:14;7.17;;;4.97;;
3417;SDS011;68007;51.312;12.372;2023-04-25T02:09:42;8.20;;;4.80;;
3417;SDS011;68007;51.312;12.372;2023-04-25T02:12:10;8.53;;;5.00;;
3417;SDS011;68007;51.312;12.372;2023-04-25T02:14:39;11.67;;;5.17;;
3417;SDS011;68007;51.312;12.372;2023-04-25T02:17:06;9.23;;;5.77;;
3417;SDS011;68007;51.312;12.372;2023-04-25T02:19:34;9.80;;;5.80;;
3417;SDS011;68007;51.312;12.372;2023-04-25T02:22:01;8.80;;;5.20;;
3417;SDS011;68007;51.312;12.372;2023-04-25T02:24:29;9.27;;;5.20;;
3417;SDS011;68007;51.312;12.372;2023-04-25T02:26:57;7.13;;;4.83;;
3417;SDS011;68007;51.312;12.372;2023-04-25T02:29:25;7.87;;;4.43;;
3417;SDS011;68007;51.312;12.372;2023-04-25T02:31:54;10.80;;;4.80;;
3417;SDS011;68007;51.312;12.372;2023-04-25T02:34:21;7.33;;;4.90;;
3417;SDS011;68007;51.312;12.372;2023-04-25T02:36:49;9.27;;;5.60;;
3417;SDS011;68007;51.312;12.372;2023-04-25T02:39:17;8.33;;;5.07;;
3417;SDS011;68007;51.312;12.372;2023-04-25T02:41:44;8.73;;;5.20;;
3417;SDS011;68007;51.312;12.372;2023-04-25T02:44:12;9.03;;;5.90;;
3417;SDS011;68007;51.312;12.372;2023-04-25T02:46:39;9.63;;;6.07;;
3417;SDS011;68007;51.312;12.372;2023-04-25T02:49:08;8.13;;;5.40;;
3417;SDS011;68007;51.312;12.372;2023-04-25T02:51:36;10.83;;;5.30;;
3417;SDS011;68007;51.312;12.372;2023-04-25T02:54:03;10.00;;;5.87;;
3417;SDS011;68007;51.312;12.372;2023-04-25T02:56:32;8.93;;;5.70;;
3417;SDS011;68007;51.312;12.372;2023-04-25T02:58:59;10.50;;;5.97;;
3417;SDS011;68007;51.312;12.372;2023-04-25T03:01:27;9.70;;;5.23;;
3417;SDS011;68007;51.312;12.372;2023-04-25T03:03:54;8.17;;;4.60;;
3417;SDS011;68007;51.312;12.372;2023-04-25T03:06:23;12.20;;;5.37;;
3417;SDS011;68007;51.312;12.372;2023-04-25T03:08:51;9.60;;;5.20;;
3417;SDS011;68007;51.312;12.372;2023-04-25T03:11:18;12.10;;;5.67;;
3417;SDS011;68007;51.312;12.372;2023-04-25T03:13:46;11.50;;;5.93;;
3417;SDS011;68007;51.312;12.372;2023-04-25T03:16:14;10.67;;;5.20;;
3417;SDS011;68007;51.312;12.372;2023-04-25T03:18:42;12.07;;;5.67;;
3417;SDS011;68007;51.312;12.372;2023-04-25T03:21:09;8.60;;;5.43;;
3417;SDS011;68007;51.312;12.372;2023-04-25T03:23:38;9.87;;;5.37;;
3417;SDS011;68007;51.312;12.372;2023-04-25T03:26:06;13.10;;;5.47;;
3417;SDS011;68007;51.312;12.372;2023-04-25T03:28:33;7.33;;;5.17;;
3417;SDS011;68007;51.312;12.372;2023-04-25T03:31:01;10.40;;;6.00;;
3417;SDS011;68007;51.312;12.372;2023-04-25T03:33:28;10.77;;;6.30;;
3417;SDS011;68007;51.312;12.372;2023-04-25T03:35:56;8.97;;;6.03;;
3417;SDS011;68007;51.312;12.372;2023-04-25T03:38:23;11.17;;;6.07;;
3417;SDS011;68007;51.312;12.372;2023-04-25T03:40:52;7.93;;;5.30;;
3417;SDS011;68007;51.312;12.372;2023-04-25T03:43:21;9.60;;;5.40;;
3417;SDS011;68007;51.312;12.372;2023-04-25T03:45:49;7.97;;;5.37;;
3417;SDS011;68007;51.312;12.372;2023-04-25T03:48:17;11.43;;;5.60;;
3417;SDS011;68007;51.312;12.372;2023-04-25T03:50:47;13.23;;;5.10;;
3417;SDS011;68007;51.312;12.372;2023-04-25T03:53:14;7.30;;;5.00;;
3417;SDS011;68007;51.312;12.372;2023-04-25T03:55:42;11.80;;;5.80;;
3417;SDS011;68007;51.312;12.372;2023-04-25T03:58:10;9.60;;;5.60;;
3417;SDS011;68007;51.312;12.372;2023-04-25T04:00:38;10.70;;;5.30;;
3417;SDS011;68007;51.312;12.372;2023-04-25T04:03:06;8.60;;;5.30;;
3417;SDS011;68007;51.312;12.372;2023-04-25T04:05:33;12.90;;;6.13;;
3417;SDS011;68007;51.312;12.372;2023-04-25T04:08:01;13.50;;;5.77;;
3417;SDS011;68007;51.312;12.372;2023-04-25T04:10:28;13.60;;;5.27;;
3417;SDS011;68007;51.312;12.372;2023-04-25T04:12:56;8.23;;;5.43;;
3417;SDS011;68007;51.312;12.372;2023-04-25T04:15:24;15.60;;;6.20;;
3417;SDS011;68007;51.312;12.372;2023-04-25T04:17:52;8.10;;;5.10;;
3417;SDS011;68007;51.312;12.372;2023-04-25T04:20:20;12.07;;;5.97;;
3417;SDS011;68007;51.312;12.372;2023-04-25T04:22:48;20.10;;;5.93;;
3417;SDS011;68007;51.312;12.372;2023-04-25T04:25:15;12.20;;;5.90;;
3417;SDS011;68007;51.312;12.372;2023-04-25T04:27:43;15.73;;;6.20;;
3417;SDS011;68007;51.312;12.372;2023-04-25T04:30:12;12.03;;;6.07;;
3417;SDS011;68007;51.312;12.372;2023-04-25T04:32:40;9.70;;;6.00;;
3417;SDS011;68007;51.312;12.372;2023-04-25T04:35:09;12.87;;;6.07;;
3417;SDS011;68007;51.312;12.372;2023-04-25T04:37:36;12.93;;;7.00;;
3417;SDS011;68007;51.312;12.372;2023-04-25T04:40:05;11.73;;;6.30;;
3417;SDS011;68007;51.312;12.372;2023-04-25T04:42:33;11.80;;;6.63;;
3417;SDS011;68007;51.312;12.372;2023-04-25T04:45:02;13.43;;;6.20;;
3417;SDS011;68007;51.312;12.372;2023-04-25T04:47:29;11.23;;;6.60;;
3417;SDS011;68007;51.312;12.372;2023-04-25T04:49:59;14.07;;;6.37;;
3417;SDS011;68007;51.312;12.372;2023-04-25T04:52:27;10.70;;;6.00;;
3417;SDS011;68007;51.312;12.372;2023-04-25T04:54:54;9.60;;;5.70;;
3417;SDS011;68007;51.312;12.372;2023-04-25T04:57:22;14.20;;;6.90;;
3417;SDS011;68007;51.312;12.372;2023-04-25T04:59:49;15.47;;;7.10;;
3417;SDS011;68007;51.312;12.372;2023-04-25T05:02:17;11.33;;;6.97;;
3417;SDS011;68007;51.312;12.372;2023-04-25T05:04:44;13.70;;;7.07;;
3417;SDS011;68007;51.312;12.372;2023-04-25T05:07:13;11.67;;;6.97;;
3417;SDS011;68007;51.312;12.372;2023-04-25T05:09:41;11.53;;;6.63;;
3417;SDS011;68007;51.312;12.372;2023-04-25T05:12:09;13.73;;;6.93;;
3417;SDS011;68007;51.312;12.372;2023-04-25T05:14:36;9.33;;;6.57;;
3417;SDS011;68007;51.312;12.372;2023-04-25T05:17:04;15.40;;;7.40;;
3417;SDS011;68007;51.312;12.372;2023-04-25T05:19:34;14.33;;;6.90;;
3417;SDS011;68007;51.312;12.372;2023-04-25T05:22:01;10.50;;;6.87;;
3417;SDS011;68007;51.312;12.372;2023-04-25T05:24:30;13.30;;;6.83;;
3417;SDS011;68007;51.312;12.372;2023-04-25T05:26:58;12.33;;;7.30;;
3417;SDS011;68007;51.312;12.372;2023-04-25T05:29:25;12.60;;;7.97;;
3417;SDS011;68007;51.312;12.372;2023-04-25T05:31:53;11.00;;;6.87;;
3417;SDS011;68007;51.312;12.372;2023-04-25T05:34:20;12.00;;;6.87;;
3417;SDS011;68007;51.312;12.372;2023-04-25T05:36:48;14.47;;;7.17;;
3417;SDS011;68007;51.312;12.372;2023-04-25T05:39:16;17.60;;;8.27;;
3417;SDS011;68007;51.312;12.372;2023-04-25T05:41:45;16.83;;;8.80;;
3417;SDS011;68007;51.312;12.372;2023-04-25T05:44:12;13.80;;;7.93;;
3417;SDS011;68007;51.312;12.372;2023-04-25T05:46:41;22.10;;;8.30;;
3417;SDS011;68007;51.312;12.372;2023-04-25T05:49:09;21.63;;;9.57;;
3417;SDS011;68007;51.312;12.372;2023-04-25T05:51:36;15.90;;;7.90;;
3417;SDS011;68007;51.312;12.372;2023-04-25T05:54:04;15.67;;;8.43;;
3417;SDS011;68007;51.312;12.372;2023-04-25T05:56:32;20.43;;;8.50;;
3417;SDS011;68007;51.312;12.372;2023-04-25T05:59:00;20.10;;;9.07;;
3417;SDS011;68007;51.312;12.372;2023-04-25T06:01:28;14.30;;;8.43;;
3417;SDS011;68007;51.312;12.372;2023-04-25T06:03:56;19.83;;;7.73;;
3417;SDS011;68007;51.312;12.372;2023-04-25T06:06:24;11.87;;;9.10;;
3417;SDS011;68007;51.312;12.372;2023-04-25T06:08:52;19.47;;;8.33;;
3417;SDS011;68007;51.312;12.372;2023-04-25T06:11:20;15.30;;;8.27;;
3417;SDS011;68007;51.312;12.372;2023-04-25T06:13:47;18.43;;;9.20;;
3417;SDS011;68007;51.312;12.372;2023-04-25T06:16:17;14.50;;;7.60;;
3417;SDS011;68007;51.312;12.372;2023-04-25T06:18:44;18.17;;;7.57;;
3417;SDS011;68007;51.312;12.372;2023-04-25T06:21:12;14.93;;;7.43;;
3417;SDS011;68007;51.312;12.372;2023-04-25T06:23:39;17.03;;;7.03;;
3417;SDS011;68007;51.312;12.372;2023-04-25T06:26:07;12.43;;;6.53;;
3417;SDS011;68007;51.312;12.372;2023-04-25T06:28:34;15.87;;;7.87;;
3417;SDS011;68007;51.312;12.372;2023-04-25T06:31:02;12.17;;;7.37;;
3417;SDS011;68007;51.312;12.372;2023-04-25T06:33:31;15.40;;;7.40;;
3417;SDS011;68007;51.312;12.372;2023-04-25T06:35:58;12.50;;;6.83;;
3417;SDS011;68007;51.312;12.372;2023-04-25T06:38:25;13.70;;;6.77;;
3417;SDS011;68007;51.312;12.372;2023-04-25T06:40:53;14.07;;;7.73;;
3417;SDS011;68007;51.312;12.372;2023-04-25T06:43:20;17.50;;;7.63;;
3417;SDS011;68007;51.312;12.372;2023-04-25T06:45:48;15.83;;;8.00;;
3417;SDS011;68007;51.312;12.372;2023-04-25T06:48:15;14.13;;;6.63;;
3417;SDS011;68007;51.312;12.372;2023-04-25T06:50:44;15.20;;;8.27;;
3417;SDS011;68007;51.312;12.372;2023-04-25T06:53:12;20.70;;;8.53;;
3417;SDS011;68007;51.312;12.372;2023-04-25T06:55:39;14.10;;;6.87;;
3417;SDS011;68007;51.312;12.372;2023-04-25T06:58:07;13.67;;;7.10;;
3417;SDS011;68007;51.312;12.372;2023-04-25T07:00:34;11.90;;;6.73;;
3417;SDS011;68007;51.312;12.372;2023-04-25T07:03:02;15.67;;;7.47;;
3417;SDS011;68007;51.312;12.372;2023-04-25T07:05:29;16.73;;;6.80;;
3417;SDS011;68007;51.312;12.372;2023-04-25T07:07:58;11.97;;;6.53;;
3417;SDS011;68007;51.312;12.372;2023-04-25T07:10:26;23.73;;;7.90;;
3417;SDS011;68007;51.312;12.372;2023-04-25T07:12:53;15.30;;;7.67;;
3417;SDS011;68007;51.312;12.372;2023-04-25T07:15:21;12.90;;;6.83;;
3417;SDS011;68007;51.312;12.372;2023-04-25T07:17:48;19.30;;;7.40;;
3417;SDS011;68007;51.312;12.372;2023-04-25T07:20:17;15.80;;;7.30;;
3417;SDS011;68007;51.312;12.372;2023-04-25T07:22:44;15.40;;;8.07;;
3417;SDS011;68007;51.312;12.372;2023-04-25T07:25:13;12.63;;;7.00;;
3417;SDS011;68007;51.312;12.372;2023-04-25T07:27:41;18.60;;;7.57;;
3417;SDS011;68007;51.312;12.372;2023-04-25T07:30:08;18.00;;;7.93;;
3417;SDS011;68007;51.312;12.372;2023-04-25T07:32:36;19.83;;;8.00;;
3417;SDS011;68007;51.312;12.372;2023-04-25T07:35:04;13.73;;;8.30;;
3417;SDS011;68007;51.312;12.372;2023-04-25T07:37:32;16.60;;;7.80;;
3417;SDS011;68007;51.312;12.372;2023-04-25T07:40:00;14.90;;;7.23;;
3417;SDS011;68007;51.312;12.372;2023-04-25T07:42:31;13.90;;;7.67;;
3417;SDS011;68007;51.312;12.372;2023-04-25T07:44:59;15.23;;;7.90;;
3417;SDS011;68007;51.312;12.372;2023-04-25T07:47:27;13.80;;;7.70;;
3417;SDS011;68007;51.312;12.372;2023-04-25T07:49:55;15.50;;;7.70;;
3417;SDS011;68007;51.312;12.372;2023-04-25T07:52:23;13.40;;;7.67;;
3417;SDS011;68007;51.312;12.372;2023-04-25T07:54:51;17.10;;;8.60;;
3417;SDS011;68007;51.312;12.372;2023-04-25T07:57:19;17.33;;;7.90;;
3417;SDS011;68007;51.312;12.372;2023-04-25T07:59:48;12.90;;;7.00;;
3417;SDS011;68007;51.312;12.372;2023-04-25T08:02:15;22.20;;;8.60;;
3417;SDS011;68007;51.312;12.372;2023-04-25T08:04:43;14.43;;;7.63;;
3417;SDS011;68007;51.312;12.372;2023-04-25T08:07:10;14.33;;;7.03;;
3417;SDS011;68007;51.312;12.372;2023-04-25T08:09:38;14.53;;;7.30;;
3417;SDS011;68007;51.312;12.372;2023-04-25T08:12:05;13.40;;;6.67;;
3417;SDS011;68007;51.312;12.372;2023-04-25T08:14:33;12.83;;;6.33;;
3417;SDS011;68007;51.312;12.372;2023-04-25T08:17:04;20.60;;;6.33;;
3417;SDS011;68007;51.312;12.372;2023-04-25T08:19:31;11.67;;;5.10;;
3417;SDS011;68007;51.312;12.372;2023-04-25T08:21:59;13.93;;;4.53;;
3417;SDS011;68007;51.312;12.372;2023-04-25T08:24:26;8.67;;;3.07;;
3417;SDS011;68007;51.312;12.372;2023-04-25T08:26:54;7.07;;;2.93;;
3417;SDS011;68007;51.312;12.372;2023-04-25T08:29:21;8.03;;;3.23;;
3417;SDS011;68007;51.312;12.372;2023-04-25T08:31:51;15.93;;;3.40;;
3417;SDS011;68007;51.312;12.372;2023-04-25T08:34:20;12.33;;;2.43;;
3417;SDS011;68007;51.312;12.372;2023-04-25T08:36:48;7.73;;;2.93;;
3417;SDS011;68007;51.312;12.372;2023-04-25T08:39:16;7.73;;;2.60;;
3417;SDS011;68007;51.312;12.372;2023-04-25T08:41:43;7.90;;;3.20;;
3417;SDS011;68007;51.312;12.372;2023-04-25T08:44:11;15.57;;;3.27;;
3417;SDS011;68007;51.312;12.372;2023-04-25T08:46:40;13.30;;;3.50;;
3417;SDS011;68007;51.312;12.372;2023-04-25T08:49:08;13.00;;;3.20;;
3417;SDS011;68007;51.312;12.372;2023-04-25T08:51:39;13.70;;;3.70;;
3417;SDS011;68007;51.312;12.372;2023-04-25T08:54:13;8.93;;;2.50;;
3417;SDS011;68007;51.312;12.372;2023-04-25T08:56:43;18.50;;;3.60;;
3417;SDS011;68007;51.312;12.372;2023-04-25T08:59:12;13.63;;;3.47;;
3417;SDS011;68007;51.312;12.372;2023-04-25T09:01:39;10.63;;;3.00;;
3417;SDS011;68007;51.312;12.372;2023-04-25T09:04:07;11.17;;;3.73;;
3417;SDS011;68007;51.312;12.372;2023-04-25T09:06:34;12.70;;;3.70;;
3417;SDS011;68007;51.312;12.372;2023-04-25T09:09:04;10.53;;;3.20;;
3417;SDS011;68007;51.312;12.372;2023-04-25T09:11:32;10.90;;;3.00;;
3417;SDS011;68007;51.312;12.372;2023-04-25T09:14:13;10.33;;;3.13;;
3417;SDS011;68007;51.312;12.372;2023-04-25T09:16:57;12.97;;;3.10;;
3417;SDS011;68007;51.312;12.372;2023-04-25T09:19:28;15.83;;;3.13;;
3417;SDS011;68007;51.312;12.372;2023-04-25T09:21:59;8.93;;;3.00;;
3417;SDS011;68007;51.312;12.372;2023-04-25T09:24:31;12.47;;;2.97;;
3417;SDS011;68007;51.312;12.372;2023-04-25T09:27:02;11.57;;;3.20;;
3417;SDS011;68007;51.312;12.372;2023-04-25T09:29:31;14.63;;;3.77;;
3417;SDS011;68007;51.312;12.372;2023-04-25T09:32:12;8.00;;;2.57;;
3417;SDS011;68007;51.312;12.372;2023-04-25T09:34:42;6.67;;;2.97;;
3417;SDS011;68007;51.312;12.372;2023-04-25T09:37:12;17.37;;;3.00;;
3417;SDS011;68007;51.312;12.372;2023-04-25T09:39:44;9.40;;;3.30;;
3417;SDS011;68007;51.312;12.372;2023-04-25T09:42:12;15.80;;;3.57;;
3417;SDS011;68007;51.312;12.372;2023-04-25T09:44:41;12.77;;;3.90;;
3417;SDS011;68007;51.312;12.372;2023-04-25T09:47:11;13.13;;;3.77;;
3417;SDS011;68007;51.312;12.372;2023-04-25T09:49:40;12.67;;;3.60;;
3417;SDS011;68007;51.312;12.372;2023-04-25T09:52:09;18.60;;;5.13;;
3417;SDS011;68007;51.312;12.372;2023-04-25T09:54:41;13.10;;;3.23;;
3417;SDS011;68007;51.312;12.372;2023-04-25T09:57:10;14.10;;;4.10;;
3417;SDS011;68007;51.312;12.372;2023-04-25T09:59:39;14.80;;;3.50;;
3417;SDS011;68007;51.312;12.372;2023-04-25T10:02:10;13.40;;;4.10;;
3417;SDS011;68007;51.312;12.372;2023-04-25T10:04:39;15.13;;;3.83;;
3417;SDS011;68007;51.312;12.372;2023-04-25T10:07:07;21.13;;;3.97;;
3417;SDS011;68007;51.312;12.372;2023-04-25T10:09:36;16.77;;;3.73;;
3417;SDS011;68007;51.312;12.372;2023-04-25T10:12:07;15.47;;;4.03;;
3417;SDS011;68007;51.312;12.372;2023-04-25T10:14:35;18.50;;;5.07;;
3417;SDS011;68007;51.312;12.372;2023-04-25T10:17:03;12.00;;;3.77;;
3417;SDS011;68007;51.312;12.372;2023-04-25T10:19:30;15.97;;;4.80;;
3417;SDS011;68007;51.312;12.372;2023-04-25T10:22:03;17.17;;;5.40;;
3417;SDS011;68007;51.312;12.372;2023-04-25T10:24:34;17.73;;;4.90;;
3417;SDS011;68007;51.312;12.372;2023-04-25T10:27:02;19.10;;;5.47;;
3417;SDS011;68007;51.312;12.372;2023-04-25T10:29:32;19.43;;;5.20;;
3417;SDS011;68007;51.312;12.372;2023-04-25T10:32:00;21.43;;;7.10;;
3417;SDS011;68007;51.312;12.372;2023-04-25T10:34:37;24.03;;;5.50;;
3417;SDS011;68007;51.312;12.372;2023-04-25T10:37:08;20.37;;;6.80;;
3417;SDS011;68007;51.312;12.372;2023-04-25T10:39:37;13.23;;;5.60;;
3417;SDS011;68007;51.312;12.372;2023-04-25T10:42:06;16.30;;;6.00;;
3417;SDS011;68007;51.312;12.372;2023-04-25T10:44:36;14.30;;;6.00;;
3417;SDS011;68007;51.312;12.372;2023-04-25T10:47:06;12.60;;;4.57;;
3417;SDS011;68007;51.312;12.372;2023-04-25T10:49:35;15.53;;;5.53;;
3417;SDS011;68007;51.312;12.372;2023-04-25T10:52:17;19.10;;;5.40;;
3417;SDS011;68007;51.312;12.372;2023-04-25T10:54:46;13.17;;;5.37;;
3417;SDS011;68007;51.312;12.372;2023-04-25T10:59:59;12.97;;;5.03;;
3417;SDS011;68007;51.312;12.372;2023-04-25T11:02:29;12.03;;;4.60;;
3417;SDS011;68007;51.312;12.372;2023-04-25T11:04:56;16.10;;;5.13;;
3417;SDS011;68007;51.312;12.372;2023-04-25T11:07:26;18.27;;;4.33;;
3417;SDS011;68007;51.312;12.372;2023-04-25T11:10:02;14.43;;;4.80;;
3417;SDS011;68007;51.312;12.372;2023-04-25T11:12:30;14.83;;;4.97;;
3417;SDS011;68007;51.312;12.372;2023-04-25T11:15:00;17.70;;;5.37;;
3417;SDS011;68007;51.312;12.372;2023-04-25T11:17:30;17.83;;;5.30;;
3417;SDS011;68007;51.312;12.372;2023-04-25T11:19:58;12.70;;;5.80;;
3417;SDS011;68007;51.312;12.372;2023-04-25T11:22:26;28.33;;;6.00;;
3417;SDS011;68007;51.312;12.372;2023-04-25T11:24:55;11.67;;;5.37;;
3417;SDS011;68007;51.312;12.372;2023-04-25T11:27:23;10.97;;;4.93;;
3417;SDS011;68007;51.312;12.372;2023-04-25T11:29:51;15.13;;;4.87;;
3417;SDS011;68007;51.312;12.372;2023-04-25T11:32:20;14.50;;;4.40;;
3417;SDS011;68007;51.312;12.372;2023-04-25T11:34:47;15.50;;;4.90;;
3417;SDS011;68007;51.312;12.372;2023-04-25T11:37:15;16.57;;;5.07;;
3417;SDS011;68007;51.312;12.372;2023-04-25T11:39:43;14.10;;;4.73;;
3417;SDS011;68007;51.312;12.372;2023-04-25T11:42:12;16.97;;;5.50;;
3417;SDS011;68007;51.312;12.372;2023-04-25T11:44:40;10.93;;;4.47;;
3417;SDS011;68007;51.312;12.372;2023-04-25T11:47:07;25.40;;;4.80;;
3417;SDS011;68007;51.312;12.372;2023-04-25T11:49:36;15.13;;;4.27;;
3417;SDS011;68007;51.312;12.372;2023-04-25T11:52:05;13.30;;;3.70;;
3417;SDS011;68007;51.312;12.372;2023-04-25T11:54:35;14.80;;;4.00;;
3417;SDS011;68007;51.312;12.372;2023-04-25T11:57:03;10.30;;;4.30;;
3417;SDS011;68007;51.312;12.372;2023-04-25T11:59:31;16.93;;;3.10;;
3417;SDS011;68007;51.312;12.372;2023-04-25T12:01:58;15.40;;;4.23;;
3417;SDS011;68007;51.312;12.372;2023-04-25T12:04:29;17.70;;;3.50;;
3417;SDS011;68007;51.312;12.372;2023-04-25T12:06:59;12.57;;;3.70;;
3417;SDS011;68007;51.312;12.372;2023-04-25T12:09:28;15.70;;;4.10;;
3417;SDS011;68007;51.312;12.372;2023-04-25T12:11:57;15.70;;;3.73;;
3417;SDS011;68007;51.312;12.372;2023-04-25T12:14:28;20.60;;;4.70;;
3417;SDS011;68007;51.312;12.372;2023-04-25T12:16:58;11.50;;;3.30;;
3417;SDS011;68007;51.312;12.372;2023-04-25T12:19:31;12.43;;;3.57;;
3417;SDS011;68007;51.312;12.372;2023-04-25T12:22:01;15.53;;;4.00;;
3417;SDS011;68007;51.312;12.372;2023-04-25T12:24:33;16.33;;;3.80;;
3417;SDS011;68007;51.312;12.372;2023-04-25T12:27:01;14.37;;;2.83;;
3417;SDS011;68007;51.312;12.372;2023-04-25T12:29:32;19.60;;;3.00;;
3417;SDS011;68007;51.312;12.372;2023-04-25T12:32:01;19.17;;;3.17;;
3417;SDS011;68007;51.312;12.372;2023-04-25T12:34:28;8.57;;;2.77;;
3417;SDS011;68007;51.312;12.372;2023-04-25T12:36:57;26.87;;;3.97;;
3417;SDS011;68007;51.312;12.372;2023-04-25T12:39:26;7.53;;;2.63;;
3417;SDS011;68007;51.312;12.372;2023-04-25T12:41:54;17.17;;;4.20;;
3417;SDS011;68007;51.312;12.372;2023-04-25T12:44:21;17.23;;;3.20;;
3417;SDS011;68007;51.312;12.372;2023-04-25T12:46:49;13.43;;;3.27;;
3417;SDS011;68007;51.312;12.372;2023-04-25T12:49:17;14.00;;;3.07;;
3417;SDS011;68007;51.312;12.372;2023-04-25T12:51:44;13.53;;;2.80;;
3417;SDS011;68007;51.312;12.372;2023-04-25T12:54:12;10.60;;;3.20;;
3417;SDS011;68007;51.312;12.372;2023-04-25T12:56:41;15.50;;;4.23;;
3417;SDS011;68007;51.312;12.372;2023-04-25T12:59:09;14.80;;;3.20;;
3417;SDS011;68007;51.312;12.372;2023-04-25T13:01:36;14.10;;;3.33;;
3417;SDS011;68007;51.312;12.372;2023-04-25T13:04:04;12.30;;;2.30;;
3417;SDS011;68007;51.312;12.372;2023-04-25T13:06:32;7.93;;;2.33;;
3417;SDS011;68007;51.312;12.372;2023-04-25T13:08:59;5.00;;;2.33;;
3417;SDS011;68007;51.312;12.372;2023-04-25T13:11:27;12.30;;;1.97;;
3417;SDS011;68007;51.312;12.372;2023-04-25T13:13:56;4.30;;;1.83;;
3417;SDS011;68007;51.312;12.372;2023-04-25T13:16:24;5.70;;;1.87;;
3417;SDS011;68007;51.312;12.372;2023-04-25T13:18:51;4.77;;;1.77;;
3417;SDS011;68007;51.312;12.372;2023-04-25T13:21:19;11.30;;;2.63;;
3417;SDS011;68007;51.312;12.372;2023-04-25T13:23:46;10.70;;;2.47;;
3417;SDS011;68007;51.312;12.372;2023-04-25T13:26:14;11.20;;;2.23;;
3417;SDS011;68007;51.312;12.372;2023-04-25T13:28:42;10.77;;;2.33;;
3417;SDS011;68007;51.312;12.372;2023-04-25T13:31:10;8.93;;;2.30;;
3417;SDS011;68007;51.312;12.372;2023-04-25T13:33:38;6.57;;;2.40;;
3417;SDS011;68007;51.312;12.372;2023-04-25T13:36:05;5.93;;;1.87;;
3417;SDS011;68007;51.312;12.372;2023-04-25T13:38:35;7.80;;;2.13;;
3417;SDS011;68007;51.312;12.372;2023-04-25T13:41:02;8.37;;;2.37;;
3417;SDS011;68007;51.312;12.372;2023-04-25T13:43:32;7.33;;;2.37;;
3417;SDS011;68007;51.312;12.372;2023-04-25T13:46:00;7.23;;;2.43;;
3417;SDS011;68007;51.312;12.372;2023-04-25T13:48:29;10.73;;;1.90;;
3417;SDS011;68007;51.312;12.372;2023-04-25T13:50:56;4.00;;;1.70;;
3417;SDS011;68007;51.312;12.372;2023-04-25T13:53:24;4.20;;;1.90;;
3417;SDS011;68007;51.312;12.372;2023-04-25T13:55:52;11.63;;;2.37;;
3417;SDS011;68007;51.312;12.372;2023-04-25T13:58:19;9.20;;;2.40;;
3417;SDS011;68007;51.312;12.372;2023-04-25T14:00:47;5.27;;;2.10;;
3417;SDS011;68007;51.312;12.372;2023-04-25T14:03:14;11.03;;;2.80;;
3417;SDS011;68007;51.312;12.372;2023-04-25T14:05:43;7.60;;;2.10;;
3417;SDS011;68007;51.312;12.372;2023-04-25T14:08:11;9.93;;;2.70;;
3417;SDS011;68007;51.312;12.372;2023-04-25T14:10:38;8.30;;;1.90;;
3417;SDS011;68007;51.312;12.372;2023-04-25T14:13:06;9.80;;;2.50;;
3417;SDS011;68007;51.312;12.372;2023-04-25T14:15:33;7.33;;;2.20;;
3417;SDS011;68007;51.312;12.372;2023-04-25T14:18:01;5.80;;;2.20;;
3417;SDS011;68007;51.312;12.372;2023-04-25T14:20:29;2.77;;;1.70;;
3417;SDS011;68007;51.312;12.372;2023-04-25T14:22:58;6.57;;;2.60;;
3417;SDS011;68007;51.312;12.372;2023-04-25T14:25:25;8.20;;;2.20;;
3417;SDS011;68007;51.312;12.372;2023-04-25T14:27:53;5.00;;;2.13;;
3417;SDS011;68007;51.312;12.372;2023-04-25T14:30:21;7.87;;;2.30;;
3417;SDS011;68007;51.312;12.372;2023-04-25T14:32:48;14.30;;;2.70;;
3417;SDS011;68007;51.312;12.372;2023-04-25T14:35:16;10.20;;;1.90;;
3417;SDS011;68007;51.312;12.372;2023-04-25T14:37:44;9.50;;;1.90;;
3417;SDS011;68007;51.312;12.372;2023-04-25T14:40:13;12.10;;;2.80;;
3417;SDS011;68007;51.312;12.372;2023-04-25T14:42:42;11.93;;;2.80;;
3417;SDS011;68007;51.312;12.372;2023-04-25T14:45:10;6.40;;;2.27;;
3417;SDS011;68007;51.312;12.372;2023-04-25T14:47:37;5.53;;;1.90;;